createdAt,value
2023-01-13T00:01:58.998Z,14.80
2023-01-13T00:04:32.007Z,15.80
2023-01-13T00:07:03.830Z,15.10
2023-01-13T00:09:35.640Z,15.10
2023-01-13T00:12:08.202Z,15.40
2023-01-13T00:14:40.099Z,16.70
2023-01-13T00:17:11.956Z,18.10
2023-01-13T00:19:44.975Z,15.60
2023-01-13T00:22:16.872Z,15.50
2023-01-13T00:24:48.733Z,15.50
2023-01-13T00:27:20.551Z,19.50
2023-01-13T00:29:52.159Z,19.10
2023-01-13T00:32:24.515Z,17.60
2023-01-13T00:34:56.529Z,14.60
2023-01-13T00:37:28.551Z,15.50
2023-01-13T00:40:00.826Z,12.30
2023-01-13T00:42:50.166Z,13.50
2023-01-13T00:45:22.415Z,12.10
2023-01-13T00:47:54.789Z,13.40
2023-01-13T00:50:27.467Z,10.80
2023-01-13T00:53:01.063Z,10.70
2023-01-13T00:55:36.099Z,10.40
2023-01-13T00:58:08.273Z,11.70
2023-01-13T01:00:40.010Z,11.90
2023-01-13T01:03:16.188Z,13.20
2023-01-13T01:05:48.658Z,17.30
2023-01-13T01:08:20.721Z,22.60
2023-01-13T01:10:52.796Z,27.10
2023-01-13T01:13:24.858Z,18.90
2023-01-13T01:15:56.559Z,13.10
2023-01-13T01:20:58.298Z,11.20
2023-01-13T01:26:02.924Z,10.40
2023-01-13T01:28:34.712Z,14.00
2023-01-13T01:31:10.723Z,12.30
2023-01-13T01:33:42.570Z,10.60
2023-01-13T01:36:15.481Z,10.30
2023-01-13T01:38:47.250Z,11.60
2023-01-13T01:41:20.112Z,12.60
2023-01-13T01:44:04.006Z,12.30
2023-01-13T01:46:37.216Z,10.40
2023-01-13T01:49:14.236Z,11.70
2023-01-13T01:51:50.291Z,12.60
2023-01-13T01:54:25.058Z,11.30
2023-01-13T01:56:56.857Z,10.30
2023-01-13T01:59:31.267Z,12.10
2023-01-13T02:02:03.599Z,12.70
2023-01-13T02:04:38.393Z,12.10
2023-01-13T02:07:10.180Z,11.80
2023-01-13T02:09:41.895Z,15.10
2023-01-13T02:12:32.580Z,14.30
2023-01-13T02:15:06.210Z,8.70
2023-01-13T02:18:01.601Z,12.00
2023-01-13T02:21:08.523Z,10.60
2023-01-13T02:24:17.489Z,12.80
2023-01-13T02:27:18.578Z,11.50
2023-01-13T02:30:16.004Z,12.50
2023-01-13T02:32:52.661Z,11.40
2023-01-13T02:35:25.945Z,10.90
2023-01-13T02:37:57.800Z,13.50
2023-01-13T02:40:31.081Z,13.50
2023-01-13T02:43:22.269Z,14.70
2023-01-13T02:45:55.349Z,17.30
2023-01-13T02:48:27.402Z,13.90
2023-01-13T02:51:00.423Z,13.20
2023-01-13T02:53:34.749Z,14.10
2023-01-13T02:56:06.889Z,14.10
2023-01-13T02:58:39.257Z,11.40
2023-01-13T03:01:11.011Z,15.50
2023-01-13T03:03:44.077Z,14.50
2023-01-13T03:06:26.719Z,12.60
2023-01-13T03:09:00.266Z,14.80
2023-01-13T03:11:33.103Z,14.80
2023-01-13T03:14:19.534Z,12.60
2023-01-13T03:16:58.220Z,11.60
2023-01-13T03:19:35.752Z,12.20
2023-01-13T03:22:12.371Z,16.10
2023-01-13T03:24:46.241Z,13.90
2023-01-13T03:27:19.806Z,10.70
2023-01-13T03:29:52.356Z,13.80
2023-01-13T03:32:26.003Z,12.10
2023-01-13T03:35:00.552Z,12.40
2023-01-13T03:37:34.810Z,14.30
2023-01-13T03:40:09.110Z,13.70
2023-01-13T03:42:41.378Z,15.20
2023-01-13T03:45:14.700Z,15.40
2023-01-13T03:47:49.242Z,12.50
2023-01-13T03:50:22.239Z,12.80
2023-01-13T03:52:55.050Z,15.50
2023-01-13T03:55:28.658Z,16.10
2023-01-13T03:58:01.774Z,14.30
2023-01-13T04:00:46.075Z,15.00
2023-01-13T04:03:20.029Z,14.20
2023-01-13T04:05:52.910Z,13.60
2023-01-13T04:08:25.910Z,14.30
2023-01-13T04:10:59.665Z,13.90
2023-01-13T04:13:33.134Z,14.70
2023-01-13T04:16:04.876Z,14.40
2023-01-13T04:18:37.905Z,14.30
2023-01-13T04:21:10.443Z,13.00
2023-01-13T04:23:42.078Z,11.00
2023-01-13T04:26:13.804Z,11.70
2023-01-13T04:28:45.460Z,14.50
2023-01-13T04:31:17.404Z,15.40
2023-01-13T04:33:49.126Z,13.10
2023-01-13T04:36:25.338Z,13.80
2023-01-13T04:38:57.426Z,13.20
2023-01-13T04:41:49.262Z,14.60
2023-01-13T04:46:51.705Z,13.30
2023-01-13T04:49:23.633Z,12.40
2023-01-13T04:51:55.408Z,14.40
2023-01-13T04:54:27.193Z,15.70
2023-01-13T04:56:59.000Z,13.50
2023-01-13T04:59:30.793Z,13.20
2023-01-13T05:02:02.663Z,13.10
2023-01-13T05:04:34.438Z,13.30
2023-01-13T05:07:06.624Z,17.10
2023-01-13T05:09:38.672Z,14.60
2023-01-13T05:12:28.479Z,13.60
2023-01-13T05:15:17.648Z,13.70
2023-01-13T05:17:49.380Z,12.70
2023-01-13T05:20:22.101Z,12.60
2023-01-13T05:23:11.225Z,13.80
2023-01-13T05:25:44.617Z,13.70
2023-01-13T05:28:16.414Z,14.50
2023-01-13T05:30:49.545Z,13.40
2023-01-13T05:33:22.024Z,12.70
2023-01-13T05:35:53.475Z,12.60
2023-01-13T05:38:24.931Z,12.30
2023-01-13T05:41:13.423Z,14.60
2023-01-13T05:43:44.918Z,13.20
2023-01-13T05:46:17.876Z,12.10
2023-01-13T05:48:49.451Z,12.30
2023-01-13T05:51:26.464Z,15.50
2023-01-13T05:53:59.507Z,16.40
2023-01-13T05:56:31.068Z,18.10
2023-01-13T06:01:32.278Z,14.80
2023-01-13T06:06:33.503Z,16.70
2023-01-13T06:09:05.341Z,13.70
2023-01-13T06:11:36.994Z,12.90
2023-01-13T06:16:38.872Z,12.30
2023-01-13T06:19:13.310Z,13.20
2023-01-13T06:21:45.108Z,14.60
2023-01-13T06:24:16.703Z,13.30
2023-01-13T06:26:49.024Z,13.90
2023-01-13T06:29:20.723Z,13.70
2023-01-13T06:31:52.719Z,13.30
2023-01-13T06:34:24.413Z,12.70
2023-01-13T06:36:56.171Z,14.90
2023-01-13T06:39:30.915Z,13.30
2023-01-13T06:42:20.253Z,12.90
2023-01-13T06:44:51.748Z,12.70
2023-01-13T06:47:23.940Z,11.90
2023-01-13T06:49:55.319Z,12.10
2023-01-13T06:52:27.578Z,11.80
2023-01-13T06:54:59.095Z,11.70
2023-01-13T07:00:00.551Z,11.10
2023-01-13T07:02:32.197Z,12.40
2023-01-13T07:05:03.955Z,12.10
2023-01-13T07:07:35.496Z,13.40
2023-01-13T07:10:09.929Z,14.10
2023-01-13T07:12:56.055Z,11.10
2023-01-13T07:15:30.588Z,11.50
2023-01-13T07:18:03.313Z,11.60
2023-01-13T07:20:34.778Z,11.00
2023-01-13T07:23:06.343Z,11.70
2023-01-13T07:25:37.871Z,11.90
2023-01-13T07:28:09.352Z,11.10
2023-01-13T07:33:10.480Z,10.60
2023-01-13T07:38:11.604Z,11.90
2023-01-13T07:40:43.032Z,11.10
2023-01-13T07:43:33.629Z,12.40
2023-01-13T07:46:06.347Z,10.30
2023-01-13T07:48:38.360Z,11.70
2023-01-13T07:51:11.328Z,13.70
2023-01-13T07:53:44.216Z,11.10
2023-01-13T07:56:15.845Z,10.40
2023-01-13T07:58:51.199Z,13.50
2023-01-13T08:03:09.567Z,10.90
2023-01-13T08:05:43.780Z,11.10
2023-01-13T08:08:15.185Z,10.20
2023-01-13T08:10:46.680Z,10.10
2023-01-13T08:13:20.735Z,10.20
2023-01-13T08:15:54.366Z,14.40
2023-01-13T08:18:27.278Z,12.10
2023-01-13T08:20:58.896Z,12.70
2023-01-13T08:23:30.690Z,13.20
2023-01-13T08:26:04.832Z,11.80
2023-01-13T08:28:36.236Z,11.70
2023-01-13T08:31:09.495Z,12.50
2023-01-13T08:33:41.646Z,11.70
2023-01-13T08:36:14.121Z,11.20
2023-01-13T08:38:45.606Z,11.50
2023-01-13T08:41:38.142Z,10.60
2023-01-13T08:44:09.653Z,13.80
2023-01-13T08:49:11.285Z,10.00
2023-01-13T08:51:42.888Z,10.40
2023-01-13T08:56:45.226Z,10.30
2023-01-13T08:59:18.319Z,12.30
2023-01-13T09:01:49.947Z,12.50
2023-01-13T09:04:23.111Z,12.20
2023-01-13T09:06:55.331Z,11.50
2023-01-13T09:09:27.881Z,11.10
2023-01-13T09:12:17.050Z,10.70
2023-01-13T09:14:48.711Z,9.30
2023-01-13T09:17:20.467Z,10.70
2023-01-13T09:19:51.897Z,12.10
2023-01-13T09:22:27.234Z,13.50
2023-01-13T09:24:59.065Z,13.80
2023-01-13T09:30:00.502Z,13.90
2023-01-13T09:32:32.073Z,11.00
2023-01-13T09:37:35.022Z,14.90
2023-01-13T09:40:07.703Z,14.10
2023-01-13T09:43:02.628Z,12.70
2023-01-13T09:45:36.457Z,12.60
2023-01-13T09:48:12.056Z,11.10
2023-01-13T09:50:53.951Z,11.00
2023-01-13T09:53:27.767Z,10.70
2023-01-13T09:55:59.313Z,10.90
2023-01-13T09:58:31.487Z,10.90
2023-01-13T10:01:20.684Z,10.90
2023-01-13T10:03:52.970Z,9.90
2023-01-13T10:08:56.251Z,9.50
2023-01-13T10:11:48.431Z,10.10
2023-01-13T10:14:21.490Z,9.50
2023-01-13T10:16:56.509Z,9.90
2023-01-13T10:19:30.649Z,10.00
2023-01-13T10:22:29.998Z,10.10
2023-01-13T10:25:18.393Z,10.80
2023-01-13T10:27:51.543Z,11.30
2023-01-13T10:30:27.819Z,11.60
2023-01-13T10:33:00.387Z,9.80
2023-01-13T10:35:59.671Z,9.00
2023-01-13T10:38:32.488Z,9.20
2023-01-13T10:55:28.966Z,10.60
2023-01-13T10:58:01.260Z,11.60
2023-01-13T11:00:34.387Z,11.60
2023-01-13T11:03:22.189Z,12.20
2023-01-13T11:05:57.404Z,14.00
2023-01-13T11:08:30.447Z,11.90
2023-01-13T11:11:02.856Z,11.40
2023-01-13T11:13:37.187Z,13.30
2023-01-13T11:16:12.280Z,12.50
2023-01-13T11:19:02.231Z,11.50
2023-01-13T11:21:36.382Z,12.60
2023-01-13T11:24:12.571Z,11.70
2023-01-13T11:26:53.163Z,14.10
2023-01-13T11:29:31.287Z,11.70
2023-01-13T11:32:07.496Z,8.50
2023-01-13T11:34:41.644Z,9.20
2023-01-13T11:37:19.573Z,11.20
2023-01-13T11:39:55.614Z,11.50
2023-01-13T11:42:29.516Z,12.50
2023-01-13T11:45:07.179Z,12.80
2023-01-13T11:47:38.827Z,15.70
2023-01-13T11:52:56.458Z,13.60
2023-01-13T11:55:33.137Z,14.00
2023-01-13T11:58:12.891Z,11.30
2023-01-13T12:01:05.749Z,9.90
2023-01-13T12:03:39.979Z,12.00
2023-01-13T12:06:25.634Z,10.90
2023-01-13T12:09:12.098Z,11.20
2023-01-13T12:12:06.047Z,9.50
2023-01-13T12:14:41.749Z,9.30
2023-01-13T12:17:18.909Z,10.50
2023-01-13T12:19:51.275Z,10.80
2023-01-13T12:22:24.950Z,12.30
2023-01-13T12:24:57.198Z,11.20
2023-01-13T12:27:35.656Z,15.20
2023-01-13T12:30:14.730Z,13.80
2023-01-13T12:32:46.135Z,13.80
2023-01-13T12:35:30.450Z,13.70
2023-01-13T12:38:05.633Z,11.70
2023-01-13T12:40:48.987Z,14.00
2023-01-13T12:43:38.973Z,13.40
2023-01-13T12:46:57.320Z,14.10
2023-01-13T12:49:30.089Z,15.70
2023-01-13T12:52:20.103Z,13.10
2023-01-13T12:55:21.260Z,12.90
2023-01-13T12:58:21.640Z,14.60
2023-01-13T13:01:01.626Z,15.30
2023-01-13T13:03:37.272Z,11.80
2023-01-13T13:06:17.557Z,11.10
2023-01-13T13:09:03.674Z,12.30
2023-01-13T13:12:03.483Z,10.30
2023-01-13T13:15:05.491Z,10.50
2023-01-13T13:17:59.337Z,10.00
2023-01-13T13:21:05.200Z,10.00
2023-01-13T13:23:48.623Z,11.70
2023-01-13T13:26:25.175Z,21.30
2023-01-13T13:29:07.134Z,20.40
2023-01-13T13:31:48.384Z,17.00
2023-01-13T13:34:28.416Z,16.70
2023-01-13T13:37:28.706Z,16.50
2023-01-13T13:40:17.727Z,16.90
2023-01-13T13:43:10.876Z,14.10
2023-01-13T13:46:08.373Z,12.30
2023-01-13T13:48:39.836Z,11.80
2023-01-13T13:51:26.357Z,13.30
2023-01-13T13:53:59.569Z,15.00
2023-01-13T13:56:31.031Z,25.30
2023-01-13T13:59:02.459Z,26.20
2023-01-13T14:01:36.857Z,28.30
2023-01-13T14:04:12.618Z,24.20
2023-01-13T14:06:55.033Z,20.00
2023-01-13T14:09:28.861Z,18.00
2023-01-13T14:12:06.853Z,16.80
2023-01-13T14:14:38.352Z,12.40
2023-01-13T14:17:17.945Z,11.30
2023-01-13T14:19:53.761Z,13.50
2023-01-13T14:22:25.463Z,14.30
2023-01-13T14:24:58.174Z,17.10
2023-01-13T14:27:30.084Z,16.90
2023-01-13T14:30:01.907Z,18.70
2023-01-13T14:32:36.775Z,18.50
2023-01-13T14:35:10.632Z,16.40
2023-01-13T14:37:43.089Z,15.10
2023-01-13T14:40:47.046Z,15.70
2023-01-13T14:43:27.643Z,14.70
2023-01-13T14:46:00.297Z,14.50
2023-01-13T14:48:36.160Z,16.10
2023-01-13T14:51:10.025Z,14.90
2023-01-13T14:53:46.490Z,12.70
2023-01-13T14:56:43.764Z,13.00
2023-01-13T14:59:36.418Z,10.90
2023-01-13T15:02:36.144Z,12.60
2023-01-13T15:05:42.862Z,14.50
2023-01-13T15:08:40.345Z,11.70
2023-01-13T15:11:24.285Z,12.90
2023-01-13T15:14:01.561Z,16.80
2023-01-13T15:16:34.952Z,17.90
2023-01-13T15:19:06.860Z,21.70
2023-01-13T15:21:38.907Z,23.00
2023-01-13T15:24:10.905Z,18.70
2023-01-13T15:26:42.414Z,14.90
2023-01-13T15:31:44.739Z,11.50
2023-01-13T15:34:16.519Z,11.50
2023-01-13T15:36:48.206Z,12.10
2023-01-13T15:39:19.682Z,13.70
2023-01-13T15:42:08.917Z,16.40
2023-01-13T15:44:58.597Z,16.80
2023-01-13T15:47:30.147Z,16.70
2023-01-13T15:52:31.848Z,14.10
2023-01-13T15:55:03.435Z,15.00
2023-01-13T16:00:08.218Z,15.00
2023-01-13T16:02:39.681Z,16.40
2023-01-13T16:05:11.390Z,17.90
2023-01-13T16:07:42.863Z,16.80
2023-01-13T16:10:19.123Z,15.10
2023-01-13T16:12:50.658Z,15.50
2023-01-13T16:15:25.139Z,15.90
2023-01-13T16:17:57.821Z,16.70
2023-01-13T16:20:29.692Z,15.30
2023-01-13T16:23:01.173Z,14.30
2023-01-13T16:28:02.868Z,13.50
2023-01-13T16:30:35.510Z,12.40
2023-01-13T16:33:08.393Z,12.80
2023-01-13T16:36:07.682Z,12.10
2023-01-13T16:38:31.293Z,13.90
2023-01-13T16:41:03.282Z,13.90
2023-01-13T16:46:07.249Z,18.10
2023-01-13T16:48:38.765Z,19.20
2023-01-13T16:53:40.516Z,15.00
2023-01-13T16:56:25.159Z,15.10
2023-01-13T16:58:58.183Z,13.40
2023-01-13T17:01:31.163Z,15.60
2023-01-13T17:04:03.861Z,15.30
2023-01-13T17:06:39.591Z,19.40
2023-01-13T17:09:18.070Z,17.00
2023-01-13T17:11:53.663Z,17.90
2023-01-13T17:14:26.703Z,17.00
2023-01-13T17:16:59.293Z,19.30
2023-01-13T17:19:31.481Z,21.50
2023-01-13T17:22:05.281Z,19.40
2023-01-13T17:24:38.280Z,18.70
2023-01-13T17:27:10.651Z,14.70
2023-01-13T17:29:46.200Z,13.80
2023-01-13T17:32:19.418Z,19.90
2023-01-13T17:34:51.263Z,17.80
2023-01-13T17:37:25.301Z,15.40
2023-01-13T17:39:57.430Z,15.70
2023-01-13T17:45:00.617Z,15.10
2023-01-13T17:47:32.296Z,23.50
2023-01-13T17:50:06.210Z,18.80
2023-01-13T17:52:38.671Z,18.00
2023-01-13T17:55:11.701Z,16.00
2023-01-13T17:57:43.659Z,18.50
2023-01-13T18:00:16.523Z,23.70
2023-01-13T18:02:51.297Z,19.20
2023-01-13T18:05:23.169Z,15.40
2023-01-13T18:07:55.456Z,17.00
2023-01-13T18:10:27.518Z,14.80
2023-01-13T18:12:59.224Z,14.60
2023-01-13T18:15:31.128Z,14.90
2023-01-13T18:18:03.220Z,14.40
2023-01-13T18:20:52.418Z,15.00
2023-01-13T18:23:42.171Z,15.70
2023-01-13T18:26:38.762Z,18.70
2023-01-13T18:29:10.907Z,17.10
2023-01-13T18:34:12.517Z,16.50
2023-01-13T18:36:44.068Z,14.50
2023-01-13T18:42:02.978Z,17.90
2023-01-13T18:44:34.791Z,16.60
2023-01-13T18:47:06.430Z,14.20
2023-01-13T18:49:37.984Z,16.60
2023-01-13T18:52:10.579Z,15.60
2023-01-13T18:54:42.372Z,16.30
2023-01-13T18:57:14.280Z,14.00
2023-01-13T18:59:46.754Z,15.50
2023-01-13T19:02:19.344Z,14.50
2023-01-13T19:04:51.263Z,14.30
2023-01-13T19:07:26.331Z,13.70
2023-01-13T19:09:59.647Z,12.80
2023-01-13T19:12:31.494Z,11.60
2023-01-13T19:15:03.186Z,12.10
2023-01-13T19:17:36.337Z,12.80
2023-01-13T19:20:09.889Z,14.40
2023-01-13T19:22:41.728Z,13.00
2023-01-13T19:25:13.381Z,12.40
2023-01-13T19:27:45.015Z,12.30
2023-01-13T19:30:17.977Z,14.40
2023-01-13T19:32:49.576Z,13.90
2023-01-13T19:35:21.408Z,13.60
2023-01-13T19:40:22.861Z,18.50
2023-01-13T19:43:12.011Z,13.40
2023-01-13T19:45:45.159Z,13.00
2023-01-13T19:48:17.044Z,12.10
2023-01-13T19:50:50.589Z,12.80
2023-01-13T19:53:22.231Z,12.30
2023-01-13T19:58:24.736Z,11.50
2023-01-13T20:00:56.586Z,12.60
2023-01-13T20:03:31.580Z,12.20
2023-01-13T20:06:09.837Z,13.50
2023-01-13T20:08:42.393Z,12.20
2023-01-13T20:11:26.222Z,9.90
2023-01-13T20:13:57.688Z,11.60
2023-01-13T20:16:29.362Z,12.30
2023-01-13T20:19:01.043Z,11.90
2023-01-13T20:21:32.545Z,11.00
2023-01-13T20:24:04.174Z,13.60
2023-01-13T20:29:06.027Z,13.70
2023-01-13T20:31:37.713Z,16.70
2023-01-13T20:34:09.398Z,16.20
2023-01-13T20:36:43.666Z,15.50
2023-01-13T20:39:17.256Z,15.60
2023-01-13T20:42:06.566Z,16.60
2023-01-13T20:44:38.082Z,16.40
2023-01-13T20:49:39.821Z,12.70
2023-01-13T20:52:11.428Z,13.50
2023-01-13T20:57:13.381Z,12.20
2023-01-13T20:59:45.106Z,14.40
2023-01-13T21:02:17.634Z,13.40
2023-01-13T21:04:49.040Z,16.10
2023-01-13T21:09:50.560Z,12.50
2023-01-13T21:15:22.347Z,12.60
2023-01-13T21:18:11.497Z,14.80
2023-01-13T21:20:43.038Z,14.30
2023-01-13T21:23:14.516Z,12.50
2023-01-13T21:25:46.008Z,13.20
2023-01-13T21:30:50.283Z,15.10
2023-01-13T21:33:21.903Z,23.70
2023-01-13T21:38:23.290Z,18.70
2023-01-13T21:41:02.739Z,21.00
2023-01-13T21:43:48.270Z,19.30
2023-01-13T21:46:37.334Z,15.90
2023-01-13T21:49:08.912Z,16.00
2023-01-13T21:51:40.353Z,14.10
2023-01-13T21:54:11.736Z,16.90
2023-01-13T21:56:43.173Z,15.10
2023-01-13T21:59:14.586Z,14.00
2023-01-13T22:02:24.053Z,13.60
2023-01-13T22:04:37.717Z,13.10
2023-01-13T22:07:09.142Z,13.30
2023-01-13T22:09:40.609Z,17.00
2023-01-13T22:14:42.113Z,14.10
2023-01-13T22:19:47.784Z,14.60
2023-01-13T22:22:19.375Z,15.50
2023-01-13T22:27:22.166Z,16.60
2023-01-13T22:29:53.993Z,17.80
2023-01-13T22:32:25.393Z,16.80
2023-01-13T22:34:56.955Z,16.10
2023-01-13T22:39:58.184Z,16.60
2023-01-13T22:42:29.927Z,17.20
2023-01-13T22:45:01.587Z,20.10
2023-01-13T22:50:03.468Z,20.90
2023-01-13T22:52:35.883Z,18.90
2023-01-13T22:55:08.697Z,19.60
2023-01-13T22:57:47.760Z,19.30
2023-01-13T23:00:21.249Z,20.00
2023-01-13T23:02:52.572Z,20.30
2023-01-13T23:05:23.980Z,19.20
2023-01-13T23:07:55.472Z,19.10
2023-01-13T23:12:56.966Z,17.20
2023-01-13T23:15:28.457Z,17.50
2023-01-13T23:20:30.679Z,22.00
2023-01-13T23:23:02.317Z,19.40
2023-01-13T23:25:33.718Z,19.50
2023-01-13T23:28:05.486Z,20.20
2023-01-13T23:30:36.985Z,18.70
2023-01-13T23:35:38.221Z,18.80
2023-01-13T23:38:09.619Z,22.20
2023-01-13T23:40:41.027Z,19.70
2023-01-13T23:43:12.488Z,17.70
2023-01-13T23:45:43.905Z,22.00
2023-01-13T23:48:15.336Z,20.60
2023-01-13T23:50:46.719Z,17.30
2023-01-13T23:53:18.135Z,18.00
2023-01-13T23:55:49.475Z,18.80
2023-01-13T23:58:20.934Z,21.40
